sensor_id;sensor_type;location;lat;lon;timestamp;P1;durP1;ratioP1;P2;durP2;ratioP2
42682;SDS011;28293;50.930;3.464;2023-10-19T00:00:04;4.47;;;1.52;;
42682;SDS011;28293;50.930;3.464;2023-10-19T00:02:45;6.68;;;1.60;;
42682;SDS011;28293;50.930;3.464;2023-10-19T00:05:11;4.30;;;1.52;;
42682;SDS011;28293;50.930;3.464;2023-10-19T00:07:40;4.45;;;1.35;;
42682;SDS011;28293;50.930;3.464;2023-10-19T00:10:06;3.85;;;1.30;;
42682;SDS011;28293;50.930;3.464;2023-10-19T00:12:32;5.82;;;1.40;;
42682;SDS011;28293;50.930;3.464;2023-10-19T00:14:58;8.20;;;1.63;;
42682;SDS011;28293;50.930;3.464;2023-10-19T00:17:25;6.40;;;2.03;;
42682;SDS011;28293;50.930;3.464;2023-10-19T00:19:52;6.32;;;1.50;;
42682;SDS011;28293;50.930;3.464;2023-10-19T00:22:36;7.43;;;1.77;;
42682;SDS011;28293;50.930;3.464;2023-10-19T00:25:02;5.20;;;1.60;;
42682;SDS011;28293;50.930;3.464;2023-10-19T00:27:28;6.82;;;1.70;;
42682;SDS011;28293;50.930;3.464;2023-10-19T00:29:54;7.25;;;1.88;;
42682;SDS011;28293;50.930;3.464;2023-10-19T00:32:30;5.05;;;1.88;;
42682;SDS011;28293;50.930;3.464;2023-10-19T00:34:56;5.47;;;1.50;;
42682;SDS011;28293;50.930;3.464;2023-10-19T00:37:22;5.63;;;1.63;;
42682;SDS011;28293;50.930;3.464;2023-10-19T00:39:57;5.10;;;1.50;;
42682;SDS011;28293;50.930;3.464;2023-10-19T00:42:39;10.88;;;1.75;;
42682;SDS011;28293;50.930;3.464;2023-10-19T00:45:10;8.23;;;1.52;;
42682;SDS011;28293;50.930;3.464;2023-10-19T00:47:38;7.07;;;2.13;;
42682;SDS011;28293;50.930;3.464;2023-10-19T00:50:10;7.93;;;2.03;;
42682;SDS011;28293;50.930;3.464;2023-10-19T00:52:46;6.72;;;1.98;;
42682;SDS011;28293;50.930;3.464;2023-10-19T00:55:15;7.15;;;1.83;;
42682;SDS011;28293;50.930;3.464;2023-10-19T00:57:43;6.25;;;1.60;;
42682;SDS011;28293;50.930;3.464;2023-10-19T01:00:13;7.65;;;1.60;;
42682;SDS011;28293;50.930;3.464;2023-10-19T01:02:59;6.22;;;1.60;;
42682;SDS011;28293;50.930;3.464;2023-10-19T01:05:26;6.45;;;1.63;;
42682;SDS011;28293;50.930;3.464;2023-10-19T01:08:00;6.70;;;1.77;;
42682;SDS011;28293;50.930;3.464;2023-10-19T01:10:27;6.07;;;1.88;;
42682;SDS011;28293;50.930;3.464;2023-10-19T01:12:53;7.88;;;1.42;;
42682;SDS011;28293;50.930;3.464;2023-10-19T01:15:20;6.40;;;1.52;;
42682;SDS011;28293;50.930;3.464;2023-10-19T01:17:52;6.30;;;1.20;;
42682;SDS011;28293;50.930;3.464;2023-10-19T01:20:26;7.45;;;1.75;;
42682;SDS011;28293;50.930;3.464;2023-10-19T01:22:58;7.68;;;1.92;;
42682;SDS011;28293;50.930;3.464;2023-10-19T01:25:55;6.00;;;1.50;;
42682;SDS011;28293;50.930;3.464;2023-10-19T01:28:23;7.55;;;1.98;;
42682;SDS011;28293;50.930;3.464;2023-10-19T01:31:03;9.02;;;2.40;;
42682;SDS011;28293;50.930;3.464;2023-10-19T01:33:31;5.25;;;1.30;;
42682;SDS011;28293;50.930;3.464;2023-10-19T01:35:59;7.50;;;1.95;;
42682;SDS011;28293;50.930;3.464;2023-10-19T01:38:40;5.65;;;1.58;;
42682;SDS011;28293;50.930;3.464;2023-10-19T01:41:07;6.38;;;1.52;;
42682;SDS011;28293;50.930;3.464;2023-10-19T01:43:54;6.85;;;1.65;;
42682;SDS011;28293;50.930;3.464;2023-10-19T01:46:20;7.13;;;1.88;;
42682;SDS011;28293;50.930;3.464;2023-10-19T01:48:49;5.88;;;1.50;;
42682;SDS011;28293;50.930;3.464;2023-10-19T01:51:20;7.07;;;1.92;;
42682;SDS011;28293;50.930;3.464;2023-10-19T01:53:46;6.50;;;1.50;;
42682;SDS011;28293;50.930;3.464;2023-10-19T01:56:12;7.93;;;1.70;;
42682;SDS011;28293;50.930;3.464;2023-10-19T01:58:40;7.55;;;1.83;;
42682;SDS011;28293;50.930;3.464;2023-10-19T02:01:09;3.90;;;1.42;;
42682;SDS011;28293;50.930;3.464;2023-10-19T02:03:35;7.60;;;1.85;;
42682;SDS011;28293;50.930;3.464;2023-10-19T02:06:02;7.72;;;1.70;;
42682;SDS011;28293;50.930;3.464;2023-10-19T02:08:51;8.15;;;1.83;;
42682;SDS011;28293;50.930;3.464;2023-10-19T02:11:25;7.15;;;1.63;;
42682;SDS011;28293;50.930;3.464;2023-10-19T02:13:52;6.10;;;1.52;;
42682;SDS011;28293;50.930;3.464;2023-10-19T02:16:26;6.97;;;1.58;;
42682;SDS011;28293;50.930;3.464;2023-10-19T02:18:54;5.90;;;1.83;;
42682;SDS011;28293;50.930;3.464;2023-10-19T02:21:20;8.43;;;2.05;;
42682;SDS011;28293;50.930;3.464;2023-10-19T02:23:55;7.85;;;2.00;;
42682;SDS011;28293;50.930;3.464;2023-10-19T02:26:22;7.93;;;1.77;;
42682;SDS011;28293;50.930;3.464;2023-10-19T02:28:51;7.00;;;1.95;;
42682;SDS011;28293;50.930;3.464;2023-10-19T02:31:18;4.70;;;1.42;;
42682;SDS011;28293;50.930;3.464;2023-10-19T02:33:50;5.38;;;1.77;;
42682;SDS011;28293;50.930;3.464;2023-10-19T02:36:26;6.97;;;2.03;;
42682;SDS011;28293;50.930;3.464;2023-10-19T02:39:02;10.27;;;2.08;;
42682;SDS011;28293;50.930;3.464;2023-10-19T02:41:32;9.50;;;1.92;;
42682;SDS011;28293;50.930;3.464;2023-10-19T02:44:00;8.35;;;2.03;;
42682;SDS011;28293;50.930;3.464;2023-10-19T02:46:44;5.65;;;1.70;;
42682;SDS011;28293;50.930;3.464;2023-10-19T02:49:15;11.70;;;2.08;;
42682;SDS011;28293;50.930;3.464;2023-10-19T02:51:48;7.63;;;2.35;;
42682;SDS011;28293;50.930;3.464;2023-10-19T02:54:16;7.10;;;1.70;;
42682;SDS011;28293;50.930;3.464;2023-10-19T02:56:55;11.02;;;1.98;;
42682;SDS011;28293;50.930;3.464;2023-10-19T02:59:26;9.70;;;2.40;;
42682;SDS011;28293;50.930;3.464;2023-10-19T03:01:54;7.85;;;2.25;;
42682;SDS011;28293;50.930;3.464;2023-10-19T03:04:48;8.07;;;2.17;;
42682;SDS011;28293;50.930;3.464;2023-10-19T03:07:14;12.05;;;2.30;;
42682;SDS011;28293;50.930;3.464;2023-10-19T03:09:40;9.98;;;2.10;;
42682;SDS011;28293;50.930;3.464;2023-10-19T03:12:18;9.82;;;2.28;;
42682;SDS011;28293;50.930;3.464;2023-10-19T03:14:45;9.00;;;2.60;;
42682;SDS011;28293;50.930;3.464;2023-10-19T03:17:14;8.93;;;2.40;;
42682;SDS011;28293;50.930;3.464;2023-10-19T03:19:40;9.45;;;2.25;;
42682;SDS011;28293;50.930;3.464;2023-10-19T03:22:07;8.80;;;2.22;;
42682;SDS011;28293;50.930;3.464;2023-10-19T03:24:34;7.43;;;1.85;;
42682;SDS011;28293;50.930;3.464;2023-10-19T03:27:10;5.75;;;1.98;;
42682;SDS011;28293;50.930;3.464;2023-10-19T03:29:49;7.75;;;2.38;;
42682;SDS011;28293;50.930;3.464;2023-10-19T03:32:25;10.18;;;2.55;;
42682;SDS011;28293;50.930;3.464;2023-10-19T03:34:52;8.88;;;2.15;;
42682;SDS011;28293;50.930;3.464;2023-10-19T03:37:21;9.05;;;2.30;;
42682;SDS011;28293;50.930;3.464;2023-10-19T03:39:50;10.18;;;2.47;;
42682;SDS011;28293;50.930;3.464;2023-10-19T03:42:16;9.95;;;2.42;;
42682;SDS011;28293;50.930;3.464;2023-10-19T03:44:42;10.05;;;2.50;;
42682;SDS011;28293;50.930;3.464;2023-10-19T03:47:18;10.77;;;2.47;;
42682;SDS011;28293;50.930;3.464;2023-10-19T03:49:45;9.20;;;2.45;;
42682;SDS011;28293;50.930;3.464;2023-10-19T03:52:12;10.05;;;2.47;;
42682;SDS011;28293;50.930;3.464;2023-10-19T03:54:38;9.77;;;2.10;;
42682;SDS011;28293;50.930;3.464;2023-10-19T03:57:05;13.85;;;2.88;;
42682;SDS011;28293;50.930;3.464;2023-10-19T03:59:33;11.70;;;2.65;;
42682;SDS011;28293;50.930;3.464;2023-10-19T04:02:00;11.55;;;2.75;;
42682;SDS011;28293;50.930;3.464;2023-10-19T04:04:32;14.07;;;2.63;;
42682;SDS011;28293;50.930;3.464;2023-10-19T04:06:58;11.90;;;2.67;;
42682;SDS011;28293;50.930;3.464;2023-10-19T04:09:24;11.75;;;2.28;;
42682;SDS011;28293;50.930;3.464;2023-10-19T04:11:57;9.82;;;2.70;;
42682;SDS011;28293;50.930;3.464;2023-10-19T04:14:23;11.02;;;2.78;;
42682;SDS011;28293;50.930;3.464;2023-10-19T04:16:48;9.88;;;2.50;;
42682;SDS011;28293;50.930;3.464;2023-10-19T04:19:14;11.75;;;2.58;;
42682;SDS011;28293;50.930;3.464;2023-10-19T04:21:43;11.45;;;2.50;;
42682;SDS011;28293;50.930;3.464;2023-10-19T04:24:11;12.10;;;2.20;;
42682;SDS011;28293;50.930;3.464;2023-10-19T04:26:38;11.90;;;2.60;;
42682;SDS011;28293;50.930;3.464;2023-10-19T04:29:04;12.18;;;2.83;;
42682;SDS011;28293;50.930;3.464;2023-10-19T04:31:42;10.88;;;2.83;;
42682;SDS011;28293;50.930;3.464;2023-10-19T04:34:21;12.30;;;2.75;;
42682;SDS011;28293;50.930;3.464;2023-10-19T04:36:47;14.93;;;3.10;;
42682;SDS011;28293;50.930;3.464;2023-10-19T04:39:13;10.82;;;2.67;;
42682;SDS011;28293;50.930;3.464;2023-10-19T04:41:42;7.88;;;2.03;;
42682;SDS011;28293;50.930;3.464;2023-10-19T04:44:09;13.40;;;2.70;;
42682;SDS011;28293;50.930;3.464;2023-10-19T04:46:35;11.85;;;2.92;;
42682;SDS011;28293;50.930;3.464;2023-10-19T04:49:01;13.32;;;3.38;;
42682;SDS011;28293;50.930;3.464;2023-10-19T04:51:28;14.07;;;2.78;;
42682;SDS011;28293;50.930;3.464;2023-10-19T04:53:54;12.55;;;2.88;;
42682;SDS011;28293;50.930;3.464;2023-10-19T04:56:20;12.18;;;2.85;;
42682;SDS011;28293;50.930;3.464;2023-10-19T04:58:46;11.82;;;2.65;;
42682;SDS011;28293;50.930;3.464;2023-10-19T05:01:12;11.52;;;2.65;;
42682;SDS011;28293;50.930;3.464;2023-10-19T05:03:40;13.52;;;2.72;;
42682;SDS011;28293;50.930;3.464;2023-10-19T05:06:06;11.60;;;2.63;;
42682;SDS011;28293;50.930;3.464;2023-10-19T05:08:32;10.98;;;2.92;;
42682;SDS011;28293;50.930;3.464;2023-10-19T05:10:58;13.52;;;2.67;;
42682;SDS011;28293;50.930;3.464;2023-10-19T05:13:27;16.25;;;3.20;;
42682;SDS011;28293;50.930;3.464;2023-10-19T05:15:53;14.63;;;3.00;;
42682;SDS011;28293;50.930;3.464;2023-10-19T05:18:20;14.18;;;3.03;;
42682;SDS011;28293;50.930;3.464;2023-10-19T05:20:46;12.77;;;3.10;;
42682;SDS011;28293;50.930;3.464;2023-10-19T05:23:12;14.25;;;3.40;;
42682;SDS011;28293;50.930;3.464;2023-10-19T05:25:38;13.65;;;3.10;;
42682;SDS011;28293;50.930;3.464;2023-10-19T05:28:04;14.35;;;3.47;;
42682;SDS011;28293;50.930;3.464;2023-10-19T05:30:31;11.00;;;2.80;;
42682;SDS011;28293;50.930;3.464;2023-10-19T05:33:00;11.50;;;2.75;;
42682;SDS011;28293;50.930;3.464;2023-10-19T05:35:31;10.50;;;2.45;;
42682;SDS011;28293;50.930;3.464;2023-10-19T05:38:00;15.48;;;2.97;;
42682;SDS011;28293;50.930;3.464;2023-10-19T05:40:26;13.50;;;2.90;;
42682;SDS011;28293;50.930;3.464;2023-10-19T05:42:55;13.68;;;3.17;;
42682;SDS011;28293;50.930;3.464;2023-10-19T05:45:22;13.32;;;3.00;;
42682;SDS011;28293;50.930;3.464;2023-10-19T05:47:49;14.68;;;3.33;;
42682;SDS011;28293;50.930;3.464;2023-10-19T05:50:14;16.20;;;3.55;;
42682;SDS011;28293;50.930;3.464;2023-10-19T05:52:43;15.55;;;3.03;;
42682;SDS011;28293;50.930;3.464;2023-10-19T05:55:09;12.13;;;3.50;;
42682;SDS011;28293;50.930;3.464;2023-10-19T05:57:36;13.75;;;3.55;;
42682;SDS011;28293;50.930;3.464;2023-10-19T06:00:06;14.10;;;3.63;;
42682;SDS011;28293;50.930;3.464;2023-10-19T06:02:38;14.98;;;3.20;;
42682;SDS011;28293;50.930;3.464;2023-10-19T06:05:12;17.80;;;4.43;;
42682;SDS011;28293;50.930;3.464;2023-10-19T06:07:40;14.07;;;3.65;;
42682;SDS011;28293;50.930;3.464;2023-10-19T06:10:06;14.02;;;3.28;;
42682;SDS011;28293;50.930;3.464;2023-10-19T06:12:33;14.85;;;3.10;;
42682;SDS011;28293;50.930;3.464;2023-10-19T06:14:59;13.45;;;3.05;;
42682;SDS011;28293;50.930;3.464;2023-10-19T06:17:26;17.00;;;4.18;;
42682;SDS011;28293;50.930;3.464;2023-10-19T06:19:53;20.02;;;4.07;;
42682;SDS011;28293;50.930;3.464;2023-10-19T06:22:19;18.65;;;4.25;;
42682;SDS011;28293;50.930;3.464;2023-10-19T06:24:44;21.88;;;4.03;;
42682;SDS011;28293;50.930;3.464;2023-10-19T06:27:10;20.13;;;4.88;;
42682;SDS011;28293;50.930;3.464;2023-10-19T06:29:36;15.35;;;4.10;;
42682;SDS011;28293;50.930;3.464;2023-10-19T06:32:01;18.67;;;5.10;;
42682;SDS011;28293;50.930;3.464;2023-10-19T06:34:27;16.08;;;3.92;;
42682;SDS011;28293;50.930;3.464;2023-10-19T06:36:53;13.60;;;3.58;;
42682;SDS011;28293;50.930;3.464;2023-10-19T06:39:19;17.10;;;4.32;;
42682;SDS011;28293;50.930;3.464;2023-10-19T06:41:48;15.52;;;4.22;;
42682;SDS011;28293;50.930;3.464;2023-10-19T06:44:14;17.65;;;4.18;;
42682;SDS011;28293;50.930;3.464;2023-10-19T06:46:41;15.15;;;4.45;;
42682;SDS011;28293;50.930;3.464;2023-10-19T06:49:08;13.20;;;4.45;;
42682;SDS011;28293;50.930;3.464;2023-10-19T06:51:34;15.43;;;4.35;;
42682;SDS011;28293;50.930;3.464;2023-10-19T06:54:01;13.05;;;4.60;;
42682;SDS011;28293;50.930;3.464;2023-10-19T06:56:27;17.45;;;4.40;;
42682;SDS011;28293;50.930;3.464;2023-10-19T06:58:53;19.15;;;4.88;;
42682;SDS011;28293;50.930;3.464;2023-10-19T07:01:18;17.27;;;4.53;;
42682;SDS011;28293;50.930;3.464;2023-10-19T07:03:48;14.40;;;4.57;;
42682;SDS011;28293;50.930;3.464;2023-10-19T07:06:13;16.27;;;3.92;;
42682;SDS011;28293;50.930;3.464;2023-10-19T07:08:40;18.33;;;4.30;;
42682;SDS011;28293;50.930;3.464;2023-10-19T07:11:08;21.17;;;4.93;;
42682;SDS011;28293;50.930;3.464;2023-10-19T07:13:34;14.98;;;3.60;;
42682;SDS011;28293;50.930;3.464;2023-10-19T07:16:00;16.17;;;4.20;;
42682;SDS011;28293;50.930;3.464;2023-10-19T07:18:26;14.75;;;4.55;;
42682;SDS011;28293;50.930;3.464;2023-10-19T07:20:51;13.43;;;4.43;;
42682;SDS011;28293;50.930;3.464;2023-10-19T07:23:18;14.20;;;4.28;;
42682;SDS011;28293;50.930;3.464;2023-10-19T07:25:46;16.15;;;4.70;;
42682;SDS011;28293;50.930;3.464;2023-10-19T07:28:13;17.27;;;4.50;;
42682;SDS011;28293;50.930;3.464;2023-10-19T07:30:41;15.82;;;4.43;;
42682;SDS011;28293;50.930;3.464;2023-10-19T07:33:08;16.08;;;4.35;;
42682;SDS011;28293;50.930;3.464;2023-10-19T07:35:35;13.20;;;3.72;;
42682;SDS011;28293;50.930;3.464;2023-10-19T07:38:07;19.13;;;4.57;;
42682;SDS011;28293;50.930;3.464;2023-10-19T07:40:33;15.30;;;4.30;;
42682;SDS011;28293;50.930;3.464;2023-10-19T07:42:59;14.13;;;4.00;;
42682;SDS011;28293;50.930;3.464;2023-10-19T07:45:25;13.40;;;4.20;;
42682;SDS011;28293;50.930;3.464;2023-10-19T07:47:51;16.88;;;4.70;;
42682;SDS011;28293;50.930;3.464;2023-10-19T07:50:17;19.15;;;5.45;;
42682;SDS011;28293;50.930;3.464;2023-10-19T07:52:52;16.42;;;4.38;;
42682;SDS011;28293;50.930;3.464;2023-10-19T07:55:19;18.58;;;4.93;;
42682;SDS011;28293;50.930;3.464;2023-10-19T07:57:51;17.08;;;4.70;;
42682;SDS011;28293;50.930;3.464;2023-10-19T08:00:18;18.92;;;4.95;;
42682;SDS011;28293;50.930;3.464;2023-10-19T08:02:45;16.83;;;4.57;;
42682;SDS011;28293;50.930;3.464;2023-10-19T08:05:11;21.55;;;4.40;;
42682;SDS011;28293;50.930;3.464;2023-10-19T08:07:38;14.55;;;4.65;;
42682;SDS011;28293;50.930;3.464;2023-10-19T08:10:11;18.23;;;4.63;;
42682;SDS011;28293;50.930;3.464;2023-10-19T08:12:40;14.23;;;3.45;;
42682;SDS011;28293;50.930;3.464;2023-10-19T08:15:07;14.82;;;4.10;;
42682;SDS011;28293;50.930;3.464;2023-10-19T08:17:36;14.30;;;4.40;;
42682;SDS011;28293;50.930;3.464;2023-10-19T08:20:06;20.00;;;4.72;;
42682;SDS011;28293;50.930;3.464;2023-10-19T08:22:41;15.30;;;3.85;;
42682;SDS011;28293;50.930;3.464;2023-10-19T08:25:08;16.13;;;3.72;;
42682;SDS011;28293;50.930;3.464;2023-10-19T08:27:43;15.15;;;4.07;;
42682;SDS011;28293;50.930;3.464;2023-10-19T08:30:17;17.98;;;3.95;;
42682;SDS011;28293;50.930;3.464;2023-10-19T08:32:44;18.40;;;4.20;;
42682;SDS011;28293;50.930;3.464;2023-10-19T08:35:16;16.40;;;4.22;;
42682;SDS011;28293;50.930;3.464;2023-10-19T08:37:49;17.20;;;3.80;;
42682;SDS011;28293;50.930;3.464;2023-10-19T08:40:15;16.77;;;3.70;;
42682;SDS011;28293;50.930;3.464;2023-10-19T08:42:42;11.88;;;3.30;;
42682;SDS011;28293;50.930;3.464;2023-10-19T08:45:10;17.63;;;4.18;;
42682;SDS011;28293;50.930;3.464;2023-10-19T08:47:55;14.55;;;3.80;;
42682;SDS011;28293;50.930;3.464;2023-10-19T08:50:23;19.23;;;4.00;;
42682;SDS011;28293;50.930;3.464;2023-10-19T08:52:52;19.02;;;4.38;;
42682;SDS011;28293;50.930;3.464;2023-10-19T08:55:19;15.50;;;3.67;;
42682;SDS011;28293;50.930;3.464;2023-10-19T08:57:46;14.55;;;3.30;;
42682;SDS011;28293;50.930;3.464;2023-10-19T09:00:17;13.05;;;3.22;;
42682;SDS011;28293;50.930;3.464;2023-10-19T09:02:44;21.77;;;4.28;;
42682;SDS011;28293;50.930;3.464;2023-10-19T09:05:13;17.77;;;3.65;;
42682;SDS011;28293;50.930;3.464;2023-10-19T09:10:23;15.32;;;3.80;;
42682;SDS011;28293;50.930;3.464;2023-10-19T09:12:59;13.32;;;3.17;;
42682;SDS011;28293;50.930;3.464;2023-10-19T09:15:35;17.10;;;4.00;;
42682;SDS011;28293;50.930;3.464;2023-10-19T09:20:40;13.73;;;3.47;;
42682;SDS011;28293;50.930;3.464;2023-10-19T09:23:17;16.45;;;3.35;;
42682;SDS011;28293;50.930;3.464;2023-10-19T09:25:44;17.85;;;3.55;;
42682;SDS011;28293;50.930;3.464;2023-10-19T09:28:10;23.40;;;4.47;;
42682;SDS011;28293;50.930;3.464;2023-10-19T09:30:38;13.52;;;3.30;;
42682;SDS011;28293;50.930;3.464;2023-10-19T09:33:05;15.57;;;3.70;;
42682;SDS011;28293;50.930;3.464;2023-10-19T09:35:32;15.93;;;3.58;;
42682;SDS011;28293;50.930;3.464;2023-10-19T09:37:59;15.73;;;4.07;;
42682;SDS011;28293;50.930;3.464;2023-10-19T09:40:26;14.15;;;3.47;;
42682;SDS011;28293;50.930;3.464;2023-10-19T09:42:54;19.90;;;3.88;;
42682;SDS011;28293;50.930;3.464;2023-10-19T09:45:22;16.20;;;3.60;;
42682;SDS011;28293;50.930;3.464;2023-10-19T09:47:53;20.08;;;4.88;;
42682;SDS011;28293;50.930;3.464;2023-10-19T09:50:19;18.27;;;4.13;;
42682;SDS011;28293;50.930;3.464;2023-10-19T09:52:45;15.68;;;3.58;;
42682;SDS011;28293;50.930;3.464;2023-10-19T09:55:17;19.70;;;4.45;;
42682;SDS011;28293;50.930;3.464;2023-10-19T10:00:17;22.98;;;4.82;;
42682;SDS011;28293;50.930;3.464;2023-10-19T10:02:48;13.95;;;3.88;;
42682;SDS011;28293;50.930;3.464;2023-10-19T10:15:53;14.00;;;4.28;;
42682;SDS011;28293;50.930;3.464;2023-10-19T10:18:32;16.02;;;3.72;;
42682;SDS011;28293;50.930;3.464;2023-10-19T10:23:56;17.75;;;3.95;;
42682;SDS011;28293;50.930;3.464;2023-10-19T10:26:24;16.23;;;3.72;;
42682;SDS011;28293;50.930;3.464;2023-10-19T10:31:48;20.08;;;4.15;;
42682;SDS011;28293;50.930;3.464;2023-10-19T10:37:05;15.80;;;3.10;;
42682;SDS011;28293;50.930;3.464;2023-10-19T10:39:35;13.50;;;3.67;;
42682;SDS011;28293;50.930;3.464;2023-10-19T10:42:02;15.32;;;3.42;;
42682;SDS011;28293;50.930;3.464;2023-10-19T10:44:39;15.25;;;3.97;;
42682;SDS011;28293;50.930;3.464;2023-10-19T10:47:21;15.35;;;3.50;;
42682;SDS011;28293;50.930;3.464;2023-10-19T10:49:50;13.80;;;4.00;;
42682;SDS011;28293;50.930;3.464;2023-10-19T10:52:49;15.40;;;3.50;;
42682;SDS011;28293;50.930;3.464;2023-10-19T10:55:09;14.68;;;3.45;;
42682;SDS011;28293;50.930;3.464;2023-10-19T10:57:36;14.38;;;3.22;;
42682;SDS011;28293;50.930;3.464;2023-10-19T11:00:03;13.80;;;2.70;;
42682;SDS011;28293;50.930;3.464;2023-10-19T11:02:32;19.60;;;3.55;;
42682;SDS011;28293;50.930;3.464;2023-10-19T11:05:01;12.13;;;2.75;;
42682;SDS011;28293;50.930;3.464;2023-10-19T11:07:28;13.15;;;2.88;;
42682;SDS011;28293;50.930;3.464;2023-10-19T11:09:54;11.80;;;2.70;;
42682;SDS011;28293;50.930;3.464;2023-10-19T11:12:20;11.52;;;3.50;;
42682;SDS011;28293;50.930;3.464;2023-10-19T11:14:52;16.02;;;4.00;;
42682;SDS011;28293;50.930;3.464;2023-10-19T11:17:19;13.32;;;3.25;;
42682;SDS011;28293;50.930;3.464;2023-10-19T11:19:48;17.85;;;4.07;;
42682;SDS011;28293;50.930;3.464;2023-10-19T11:22:14;11.98;;;3.45;;
42682;SDS011;28293;50.930;3.464;2023-10-19T11:24:40;14.75;;;3.25;;
42682;SDS011;28293;50.930;3.464;2023-10-19T11:27:06;12.32;;;2.83;;
42682;SDS011;28293;50.930;3.464;2023-10-19T11:29:37;16.02;;;3.67;;
42682;SDS011;28293;50.930;3.464;2023-10-19T11:32:03;11.82;;;2.90;;
42682;SDS011;28293;50.930;3.464;2023-10-19T11:34:29;12.23;;;2.90;;
42682;SDS011;28293;50.930;3.464;2023-10-19T11:36:58;12.70;;;3.20;;
42682;SDS011;28293;50.930;3.464;2023-10-19T11:39:28;14.32;;;3.72;;
42682;SDS011;28293;50.930;3.464;2023-10-19T11:41:54;13.43;;;3.80;;
42682;SDS011;28293;50.930;3.464;2023-10-19T11:44:19;11.50;;;3.70;;
42682;SDS011;28293;50.930;3.464;2023-10-19T11:46:45;12.60;;;3.58;;
42682;SDS011;28293;50.930;3.464;2023-10-19T11:49:11;11.15;;;3.45;;
42682;SDS011;28293;50.930;3.464;2023-10-19T11:51:36;8.52;;;2.95;;
42682;SDS011;28293;50.930;3.464;2023-10-19T11:54:04;10.70;;;2.80;;
42682;SDS011;28293;50.930;3.464;2023-10-19T11:56:31;8.18;;;2.63;;
42682;SDS011;28293;50.930;3.464;2023-10-19T11:58:57;8.88;;;2.70;;
42682;SDS011;28293;50.930;3.464;2023-10-19T12:01:22;11.52;;;3.15;;
42682;SDS011;28293;50.930;3.464;2023-10-19T12:03:50;9.23;;;2.67;;
42682;SDS011;28293;50.930;3.464;2023-10-19T12:06:16;9.13;;;2.38;;
42682;SDS011;28293;50.930;3.464;2023-10-19T12:08:45;9.80;;;2.95;;
42682;SDS011;28293;50.930;3.464;2023-10-19T12:11:11;9.10;;;2.63;;
42682;SDS011;28293;50.930;3.464;2023-10-19T12:13:41;8.82;;;2.47;;
42682;SDS011;28293;50.930;3.464;2023-10-19T12:16:14;8.00;;;2.75;;
42682;SDS011;28293;50.930;3.464;2023-10-19T12:18:43;7.50;;;2.58;;
42682;SDS011;28293;50.930;3.464;2023-10-19T12:21:10;12.77;;;2.70;;
42682;SDS011;28293;50.930;3.464;2023-10-19T12:23:39;11.57;;;2.95;;
42682;SDS011;28293;50.930;3.464;2023-10-19T12:26:06;8.95;;;3.00;;
42682;SDS011;28293;50.930;3.464;2023-10-19T12:28:39;9.63;;;2.90;;
42682;SDS011;28293;50.930;3.464;2023-10-19T12:31:06;6.75;;;2.60;;
42682;SDS011;28293;50.930;3.464;2023-10-19T12:33:36;6.88;;;2.40;;
42682;SDS011;28293;50.930;3.464;2023-10-19T12:36:03;9.27;;;2.60;;
42682;SDS011;28293;50.930;3.464;2023-10-19T12:38:50;8.65;;;2.50;;
42682;SDS011;28293;50.930;3.464;2023-10-19T12:41:16;7.72;;;2.72;;
42682;SDS011;28293;50.930;3.464;2023-10-19T12:43:43;8.93;;;2.65;;
42682;SDS011;28293;50.930;3.464;2023-10-19T12:46:09;8.52;;;2.55;;
42682;SDS011;28293;50.930;3.464;2023-10-19T12:48:37;8.88;;;2.75;;
42682;SDS011;28293;50.930;3.464;2023-10-19T12:51:03;8.95;;;2.25;;
42682;SDS011;28293;50.930;3.464;2023-10-19T12:53:32;9.10;;;2.70;;
42682;SDS011;28293;50.930;3.464;2023-10-19T12:55:58;5.88;;;2.05;;
42682;SDS011;28293;50.930;3.464;2023-10-19T12:58:25;8.23;;;2.30;;
42682;SDS011;28293;50.930;3.464;2023-10-19T13:00:53;7.45;;;2.35;;
42682;SDS011;28293;50.930;3.464;2023-10-19T13:03:20;9.15;;;3.20;;
42682;SDS011;28293;50.930;3.464;2023-10-19T13:05:47;7.65;;;2.33;;
42682;SDS011;28293;50.930;3.464;2023-10-19T13:08:14;8.65;;;3.17;;
42682;SDS011;28293;50.930;3.464;2023-10-19T13:10:41;8.00;;;2.53;;
42682;SDS011;28293;50.930;3.464;2023-10-19T13:13:09;7.10;;;2.53;;
42682;SDS011;28293;50.930;3.464;2023-10-19T13:15:40;6.55;;;2.45;;
42682;SDS011;28293;50.930;3.464;2023-10-19T13:18:08;6.40;;;2.28;;
42682;SDS011;28293;50.930;3.464;2023-10-19T13:20:38;11.45;;;3.05;;
42682;SDS011;28293;50.930;3.464;2023-10-19T13:23:09;7.43;;;2.80;;
42682;SDS011;28293;50.930;3.464;2023-10-19T13:25:42;6.43;;;2.80;;
42682;SDS011;28293;50.930;3.464;2023-10-19T13:28:20;11.93;;;3.10;;
42682;SDS011;28293;50.930;3.464;2023-10-19T13:33:14;9.93;;;3.38;;
42682;SDS011;28293;50.930;3.464;2023-10-19T13:35:41;9.10;;;2.92;;
42682;SDS011;28293;50.930;3.464;2023-10-19T13:38:09;7.25;;;2.70;;
42682;SDS011;28293;50.930;3.464;2023-10-19T13:40:37;9.02;;;3.30;;
42682;SDS011;28293;50.930;3.464;2023-10-19T13:43:03;7.00;;;3.10;;
42682;SDS011;28293;50.930;3.464;2023-10-19T13:45:32;10.82;;;3.10;;
42682;SDS011;28293;50.930;3.464;2023-10-19T13:48:04;6.30;;;2.40;;
42682;SDS011;28293;50.930;3.464;2023-10-19T13:50:32;8.45;;;2.95;;
42682;SDS011;28293;50.930;3.464;2023-10-19T13:52:58;9.35;;;3.08;;
42682;SDS011;28293;50.930;3.464;2023-10-19T13:55:30;8.38;;;2.90;;
42682;SDS011;28293;50.930;3.464;2023-10-19T13:57:56;9.15;;;2.65;;
42682;SDS011;28293;50.930;3.464;2023-10-19T14:00:23;7.35;;;2.50;;
42682;SDS011;28293;50.930;3.464;2023-10-19T14:02:53;11.23;;;3.03;;
42682;SDS011;28293;50.930;3.464;2023-10-19T14:05:19;8.63;;;3.03;;
42682;SDS011;28293;50.930;3.464;2023-10-19T14:07:48;8.10;;;2.88;;
42682;SDS011;28293;50.930;3.464;2023-10-19T14:10:13;7.90;;;2.97;;
42682;SDS011;28293;50.930;3.464;2023-10-19T14:12:39;9.00;;;2.83;;
42682;SDS011;28293;50.930;3.464;2023-10-19T14:15:12;8.40;;;2.78;;
42682;SDS011;28293;50.930;3.464;2023-10-19T14:17:40;9.10;;;2.85;;
42682;SDS011;28293;50.930;3.464;2023-10-19T14:20:06;9.98;;;2.70;;
42682;SDS011;28293;50.930;3.464;2023-10-19T14:22:37;9.18;;;3.05;;
42682;SDS011;28293;50.930;3.464;2023-10-19T14:25:14;8.90;;;2.55;;
42682;SDS011;28293;50.930;3.464;2023-10-19T14:27:43;6.03;;;2.60;;
42682;SDS011;28293;50.930;3.464;2023-10-19T14:30:10;11.13;;;3.13;;
42682;SDS011;28293;50.930;3.464;2023-10-19T14:32:41;7.13;;;2.58;;
42682;SDS011;28293;50.930;3.464;2023-10-19T14:35:08;7.80;;;2.47;;
42682;SDS011;28293;50.930;3.464;2023-10-19T14:37:39;7.57;;;2.95;;
42682;SDS011;28293;50.930;3.464;2023-10-19T14:40:07;11.65;;;2.95;;
42682;SDS011;28293;50.930;3.464;2023-10-19T14:42:35;7.90;;;2.67;;
42682;SDS011;28293;50.930;3.464;2023-10-19T14:45:14;9.20;;;3.17;;
42682;SDS011;28293;50.930;3.464;2023-10-19T14:47:41;7.47;;;2.85;;
42682;SDS011;28293;50.930;3.464;2023-10-19T14:50:12;8.68;;;2.78;;
42682;SDS011;28293;50.930;3.464;2023-10-19T14:52:41;7.82;;;2.75;;
42682;SDS011;28293;50.930;3.464;2023-10-19T14:55:08;7.57;;;2.60;;
42682;SDS011;28293;50.930;3.464;2023-10-19T14:57:35;8.05;;;2.40;;
42682;SDS011;28293;50.930;3.464;2023-10-19T15:00:02;7.00;;;2.58;;
42682;SDS011;28293;50.930;3.464;2023-10-19T15:02:43;5.47;;;2.35;;
42682;SDS011;28293;50.930;3.464;2023-10-19T15:05:11;6.50;;;2.30;;
42682;SDS011;28293;50.930;3.464;2023-10-19T15:07:41;6.57;;;2.40;;
42682;SDS011;28293;50.930;3.464;2023-10-19T15:10:09;7.50;;;2.30;;
42682;SDS011;28293;50.930;3.464;2023-10-19T15:12:37;10.55;;;2.30;;
42682;SDS011;28293;50.930;3.464;2023-10-19T15:15:06;5.13;;;2.25;;
42682;SDS011;28293;50.930;3.464;2023-10-19T15:17:34;5.03;;;1.88;;
42682;SDS011;28293;50.930;3.464;2023-10-19T15:20:03;9.43;;;2.55;;